createdAt,value
2022-09-25T00:00:51.727Z,99390.00
2022-09-25T00:03:19.036Z,99389.38
2022-09-25T00:05:46.989Z,99392.22
2022-09-25T00:08:15.439Z,99381.34
2022-09-25T00:10:52.411Z,99384.22
2022-09-25T00:13:20.704Z,99371.00
2022-09-25T00:15:50.067Z,99389.03
2022-09-25T00:18:17.348Z,99373.72
2022-09-25T00:20:43.983Z,99384.31
2022-09-25T00:23:10.678Z,99382.47
2022-09-25T00:25:37.269Z,99378.09
2022-09-25T00:28:03.982Z,99363.59
2022-09-25T00:30:30.794Z,99357.09
2022-09-25T00:32:57.502Z,99355.91
2022-09-25T00:35:24.145Z,99350.19
2022-09-25T00:37:50.744Z,99371.00
2022-09-25T00:40:17.499Z,99365.22
2022-09-25T00:42:44.495Z,99360.06
2022-09-25T00:45:20.641Z,99365.44
2022-09-25T00:47:59.982Z,99351.81
2022-09-25T00:50:51.427Z,99343.06
2022-09-25T00:53:31.965Z,99356.38
2022-09-25T00:56:01.426Z,99359.03
2022-09-25T00:58:31.049Z,99355.53
2022-09-25T01:00:57.756Z,99351.84
2022-09-25T01:03:27.336Z,99346.50
2022-09-25T01:05:54.702Z,99340.69
2022-09-25T01:08:26.195Z,99324.56
2022-09-25T01:10:52.862Z,99343.28
2022-09-25T01:13:20.281Z,99329.66
2022-09-25T01:16:04.178Z,99341.59
2022-09-25T01:18:36.732Z,99345.09
2022-09-25T01:21:32.399Z,99340.59
2022-09-25T01:24:06.350Z,99348.19
2022-09-25T01:26:54.624Z,99344.91
2022-09-25T01:29:40.524Z,99336.19
2022-09-25T01:32:17.988Z,99321.53
2022-09-25T01:34:59.903Z,99338.69
2022-09-25T01:38:15.147Z,99331.25
2022-09-25T01:40:58.736Z,99341.44
2022-09-25T01:43:34.301Z,99322.25
2022-09-25T01:46:05.536Z,99328.16
2022-09-25T01:48:34.928Z,99315.91
2022-09-25T01:51:10.397Z,99333.44
2022-09-25T01:53:47.875Z,99326.56
2022-09-25T01:56:22.171Z,99328.47
2022-09-25T01:58:55.223Z,99339.94
2022-09-25T02:01:27.078Z,99332.41
2022-09-25T02:04:00.883Z,99330.56
2022-09-25T02:06:27.904Z,99334.63
2022-09-25T02:09:03.319Z,99311.81
2022-09-25T02:11:37.455Z,99345.94
2022-09-25T02:14:19.022Z,99339.94
2022-09-25T02:16:48.865Z,99336.78
2022-09-25T02:19:36.044Z,99318.97
2022-09-25T02:22:10.514Z,99296.09
2022-09-25T02:24:52.252Z,99314.81
2022-09-25T02:27:24.115Z,99332.94
2022-09-25T02:29:52.243Z,99332.88
2022-09-25T02:32:28.723Z,99318.78
2022-09-25T02:34:56.867Z,99326.69
2022-09-25T02:37:24.053Z,99330.78
2022-09-25T02:39:54.441Z,99328.53
2022-09-25T02:42:40.616Z,99326.91
2022-09-25T02:45:29.652Z,99310.59
2022-09-25T02:48:21.042Z,99326.69
2022-09-25T02:51:04.331Z,99319.94
2022-09-25T02:53:36.617Z,99318.91
2022-09-25T02:56:34.699Z,99294.09
2022-09-25T02:59:07.627Z,99290.28
2022-09-25T03:01:38.519Z,99320.13
2022-09-25T03:04:06.337Z,99312.63
2022-09-25T03:06:33.285Z,99317.75
2022-09-25T03:09:02.080Z,99311.47
2022-09-25T03:11:28.891Z,99310.16
2022-09-25T03:13:56.623Z,99284.66
2022-09-25T03:16:32.015Z,99304.78
2022-09-25T03:18:58.708Z,99274.19
2022-09-25T03:21:25.283Z,99304.53
2022-09-25T03:23:51.876Z,99311.16
2022-09-25T03:26:18.485Z,99278.16
2022-09-25T03:28:47.072Z,99308.19
2022-09-25T03:31:14.871Z,99313.09
2022-09-25T03:33:43.412Z,99309.13
2022-09-25T03:36:12.942Z,99313.78
2022-09-25T03:38:41.201Z,99311.28
2022-09-25T03:41:09.643Z,99315.63
2022-09-25T03:43:37.333Z,99307.72
2022-09-25T03:46:06.213Z,99305.47
2022-09-25T03:48:33.957Z,99283.44
2022-09-25T03:51:01.163Z,99320.19
2022-09-25T03:53:31.550Z,99313.56
2022-09-25T03:55:58.184Z,99306.53
2022-09-25T03:58:24.829Z,99302.16
2022-09-25T04:00:51.650Z,99318.84
2022-09-25T04:03:18.240Z,99312.06
2022-09-25T04:05:46.078Z,99308.75
2022-09-25T04:08:12.955Z,99285.09
2022-09-25T04:10:40.217Z,99307.34
2022-09-25T04:13:08.343Z,99297.16
2022-09-25T04:15:35.279Z,99310.00
2022-09-25T04:18:05.970Z,99307.75
2022-09-25T04:20:35.868Z,99288.78
2022-09-25T04:23:02.571Z,99278.41
2022-09-25T04:25:29.227Z,99302.22
2022-09-25T04:27:58.052Z,99301.63
2022-09-25T04:30:26.151Z,99290.25
2022-09-25T04:33:11.630Z,99299.94
2022-09-25T04:35:38.712Z,99299.59
2022-09-25T04:38:05.307Z,99301.06
2022-09-25T04:40:33.663Z,99304.34
2022-09-25T04:43:02.498Z,99304.22
2022-09-25T04:45:30.915Z,99302.19
2022-09-25T04:48:00.440Z,99310.16
2022-09-25T04:50:28.857Z,99304.22
2022-09-25T04:53:02.102Z,99311.81
2022-09-25T04:55:28.744Z,99311.94
2022-09-25T04:58:01.058Z,99317.88
2022-09-25T05:00:30.380Z,99300.66
2022-09-25T05:02:57.522Z,99306.66
2022-09-25T05:05:28.344Z,99302.94
2022-09-25T05:07:57.129Z,99303.63
2022-09-25T05:10:27.246Z,99301.59
2022-09-25T05:12:56.216Z,99272.34
2022-09-25T05:15:23.024Z,99293.97
2022-09-25T05:17:50.127Z,99302.28
2022-09-25T05:20:17.225Z,99274.97
2022-09-25T05:22:44.245Z,99309.09
2022-09-25T05:25:13.696Z,99309.38
2022-09-25T05:27:40.329Z,99286.97
2022-09-25T05:30:09.462Z,99297.97
2022-09-25T05:32:36.146Z,99302.28
2022-09-25T05:35:03.613Z,99278.81
2022-09-25T05:37:30.413Z,99289.16
2022-09-25T05:39:56.996Z,99275.47
2022-09-25T05:42:23.679Z,99286.56
2022-09-25T05:44:50.314Z,99308.75
2022-09-25T05:47:17.092Z,99310.00
2022-09-25T05:49:43.739Z,99304.59
2022-09-25T05:52:10.338Z,99289.50
2022-09-25T05:54:36.934Z,99306.94
2022-09-25T05:57:03.743Z,99276.69
2022-09-25T05:59:30.443Z,99308.25
2022-09-25T06:01:57.099Z,99309.81
2022-09-25T06:04:23.688Z,99310.47
2022-09-25T06:06:50.378Z,99276.06
2022-09-25T06:09:17.056Z,99304.56
2022-09-25T06:11:47.392Z,99313.88
2022-09-25T06:14:14.520Z,99313.03
2022-09-25T06:16:41.314Z,99316.84
2022-09-25T06:19:08.424Z,99317.84
2022-09-25T06:21:35.157Z,99314.94
2022-09-25T06:24:01.832Z,99316.19
2022-09-25T06:26:28.528Z,99297.50
2022-09-25T06:28:57.666Z,99293.88
2022-09-25T06:31:27.801Z,99296.56
2022-09-25T06:33:54.643Z,99300.84
2022-09-25T06:36:21.360Z,99313.19
2022-09-25T06:38:49.284Z,99318.63
2022-09-25T06:41:16.634Z,99309.91
2022-09-25T06:43:48.056Z,99290.78
2022-09-25T06:46:20.067Z,99317.16
2022-09-25T06:48:57.825Z,99319.88
2022-09-25T06:51:32.221Z,99312.72
2022-09-25T06:53:59.014Z,99308.53
2022-09-25T06:56:25.792Z,99317.47
2022-09-25T06:58:52.494Z,99319.75
2022-09-25T07:01:19.333Z,99326.50
2022-09-25T07:03:47.167Z,99324.03
2022-09-25T07:06:21.728Z,99324.03
2022-09-25T07:08:50.215Z,99298.28
2022-09-25T07:11:20.374Z,99322.53
2022-09-25T07:13:47.428Z,99326.34
2022-09-25T07:16:17.253Z,99331.03
2022-09-25T07:18:45.422Z,99329.63
2022-09-25T07:21:19.373Z,99326.56
2022-09-25T07:23:50.128Z,99325.75
2022-09-25T07:26:28.414Z,99334.34
2022-09-25T07:29:04.563Z,99337.00
2022-09-25T07:31:33.413Z,99339.88
2022-09-25T07:34:05.834Z,99324.97
2022-09-25T07:36:33.083Z,99336.03
2022-09-25T07:38:59.751Z,99320.81
2022-09-25T07:41:26.466Z,99331.19
2022-09-25T07:44:11.932Z,99346.13
2022-09-25T07:46:43.411Z,99348.19
2022-09-25T07:49:10.303Z,99325.31
2022-09-25T07:51:37.213Z,99346.34
2022-09-25T07:54:04.355Z,99321.03
2022-09-25T07:56:31.198Z,99323.69
2022-09-25T07:59:13.875Z,99341.66
2022-09-25T08:01:44.284Z,99321.63
2022-09-25T08:04:13.080Z,99341.97
2022-09-25T08:06:39.948Z,99347.69
2022-09-25T08:09:10.403Z,99341.69
2022-09-25T08:11:38.068Z,99330.44
2022-09-25T08:14:04.895Z,99310.84
2022-09-25T08:16:31.642Z,99345.94
2022-09-25T08:18:58.509Z,99331.19
2022-09-25T08:21:25.271Z,99335.91
2022-09-25T08:23:54.656Z,99337.31
2022-09-25T08:26:22.959Z,99342.56
2022-09-25T08:28:50.833Z,99348.66
2022-09-25T08:31:18.240Z,99347.88
2022-09-25T08:33:49.655Z,99347.91
2022-09-25T08:36:17.301Z,99345.66
2022-09-25T08:38:44.800Z,99334.66
2022-09-25T08:41:18.984Z,99344.88
2022-09-25T08:44:06.660Z,99347.06
2022-09-25T08:47:05.185Z,99348.72
2022-09-25T08:50:02.421Z,99348.94
2022-09-25T09:03:33.729Z,99342.53
2022-09-25T09:06:07.772Z,99295.50
2022-09-25T09:08:38.481Z,99350.38
2022-09-25T09:11:16.468Z,99352.59
2022-09-25T09:14:02.760Z,99329.47
2022-09-25T09:16:41.352Z,99333.78
2022-09-25T09:19:11.500Z,99334.69
2022-09-25T09:21:39.398Z,99351.28
2022-09-25T09:24:15.024Z,99349.22
2022-09-25T09:27:00.379Z,99345.72
2022-09-25T09:29:45.559Z,99335.69
2022-09-25T09:32:25.522Z,99327.69
2022-09-25T09:35:17.813Z,99328.72
2022-09-25T09:38:07.727Z,99341.78
2022-09-25T09:41:01.936Z,99345.44
2022-09-25T09:43:58.311Z,99348.91
2022-09-25T09:46:48.660Z,99356.91
2022-09-25T09:49:36.713Z,99320.25
2022-09-25T09:52:19.597Z,99357.53
2022-09-25T09:55:15.590Z,99336.44
2022-09-25T09:57:51.221Z,99327.84
2022-09-25T10:00:20.613Z,99343.94
2022-09-25T10:03:02.778Z,99339.22
2022-09-25T10:05:41.720Z,99351.06
2022-09-25T10:08:11.904Z,99335.22
2022-09-25T10:10:41.669Z,99346.81
2022-09-25T10:13:26.829Z,99325.16
2022-09-25T10:15:57.181Z,99344.47
2022-09-25T10:18:28.371Z,99335.00
2022-09-25T10:21:18.542Z,99336.34
2022-09-25T10:23:56.154Z,99344.63
2022-09-25T10:26:40.317Z,99330.91
2022-09-25T10:29:09.720Z,99335.97
2022-09-25T10:31:39.343Z,99323.69
2022-09-25T10:34:17.842Z,99335.38
2022-09-25T10:36:48.000Z,99305.72
2022-09-25T10:39:45.306Z,99330.78
2022-09-25T10:42:42.247Z,99313.59
2022-09-25T10:45:35.536Z,99323.69
2022-09-25T10:48:39.688Z,99272.09
2022-09-25T10:51:08.678Z,99319.56
2022-09-25T10:53:35.478Z,99285.19
2022-09-25T10:56:05.258Z,99317.41
2022-09-25T10:58:38.054Z,99316.66
2022-09-25T11:01:06.908Z,99297.91
2022-09-25T11:03:58.469Z,99315.97
2022-09-25T11:06:33.111Z,99314.72
2022-09-25T11:09:02.539Z,99305.13
2022-09-25T11:11:29.655Z,99293.19
2022-09-25T11:14:03.495Z,99300.44
2022-09-25T11:17:05.903Z,99293.03
2022-09-25T11:19:35.693Z,99301.34
2022-09-25T11:22:30.954Z,99286.53
2022-09-25T11:25:08.084Z,99286.63
2022-09-25T11:27:40.742Z,99283.28
2022-09-25T11:30:18.971Z,99287.09
2022-09-25T11:33:21.196Z,99243.50
2022-09-25T11:36:00.630Z,99294.53
2022-09-25T11:39:03.960Z,99300.16
2022-09-25T11:41:41.136Z,99297.94
2022-09-25T11:44:20.489Z,99296.22
2022-09-25T11:46:56.574Z,99302.13
2022-09-25T11:49:28.850Z,99293.06
2022-09-25T11:51:58.425Z,99295.38
2022-09-25T11:54:50.532Z,99302.13
2022-09-25T11:57:34.376Z,99290.00
2022-09-25T12:00:04.827Z,99310.63
2022-09-25T12:03:02.582Z,99318.97
2022-09-25T12:05:48.179Z,99299.09
2022-09-25T12:08:36.487Z,99310.53
2022-09-25T12:11:22.311Z,99310.44
2022-09-25T12:13:56.051Z,99308.66
2022-09-25T12:16:47.933Z,99314.25
2022-09-25T12:20:00.922Z,99318.03
2022-09-25T12:22:49.920Z,99320.94
2022-09-25T12:25:25.497Z,99313.06
2022-09-25T12:28:17.288Z,99281.66
2022-09-25T12:30:49.814Z,99306.94
2022-09-25T12:33:38.752Z,99311.91
2022-09-25T12:36:11.175Z,99310.44
2022-09-25T12:38:40.587Z,99304.69
2022-09-25T12:41:24.322Z,99308.94
2022-09-25T12:44:05.027Z,99311.28
2022-09-25T12:46:42.480Z,99301.50
2022-09-25T12:49:18.572Z,99303.72
2022-09-25T12:51:51.441Z,99285.56
2022-09-25T12:54:30.366Z,99276.00
2022-09-25T12:57:04.179Z,99315.59
2022-09-25T12:59:41.480Z,99292.13
2022-09-25T13:02:30.511Z,99295.59
2022-09-25T13:05:21.495Z,99287.59
2022-09-25T13:08:25.450Z,99289.81
2022-09-25T13:10:56.913Z,99284.22
2022-09-25T13:13:28.109Z,99219.72
2022-09-25T13:15:59.639Z,99292.00
2022-09-25T13:18:29.338Z,99289.69
2022-09-25T13:21:19.309Z,99291.38
2022-09-25T13:23:49.763Z,99287.34
2022-09-25T13:26:18.940Z,99284.28
2022-09-25T13:28:52.588Z,99298.84
2022-09-25T13:31:47.551Z,99292.03
2022-09-25T13:34:17.198Z,99294.13
2022-09-25T13:36:47.327Z,99290.19
2022-09-25T13:39:37.748Z,99289.38
2022-09-25T13:42:16.037Z,99292.56
2022-09-25T13:44:43.123Z,99293.38
2022-09-25T13:47:23.337Z,99289.69
2022-09-25T13:50:08.858Z,99288.88
2022-09-25T13:53:11.217Z,99283.09
2022-09-25T13:55:42.494Z,99288.97
2022-09-25T13:58:17.697Z,99280.25
2022-09-25T14:00:50.496Z,99289.31
2022-09-25T14:03:36.609Z,99289.56
2022-09-25T14:06:07.096Z,99296.16
2022-09-25T14:08:35.106Z,99230.97
2022-09-25T14:11:05.414Z,99284.44
2022-09-25T14:13:34.127Z,99280.22
2022-09-25T14:16:04.692Z,99272.97
2022-09-25T14:18:38.713Z,99276.91
2022-09-25T14:21:07.592Z,99190.97
2022-09-25T14:23:49.434Z,99280.03
2022-09-25T14:26:28.646Z,99250.50
2022-09-25T14:28:57.577Z,99268.28
2022-09-25T14:31:34.332Z,99274.44
2022-09-25T14:34:16.031Z,99272.91
2022-09-25T14:36:53.648Z,99276.47
2022-09-25T14:39:54.118Z,99271.16
2022-09-25T14:42:38.157Z,99272.72
2022-09-25T14:45:23.846Z,99275.44
2022-09-25T14:47:52.771Z,99253.88
2022-09-25T14:50:21.656Z,99274.44
2022-09-25T14:53:13.763Z,99262.13
2022-09-25T14:55:48.675Z,99251.63
2022-09-25T14:58:19.919Z,99270.34
2022-09-25T15:00:50.171Z,99270.44
2022-09-25T15:03:19.940Z,99264.22
2022-09-25T15:05:49.085Z,99265.25
2022-09-25T15:08:31.143Z,99257.03
2022-09-25T15:11:12.610Z,99266.41
2022-09-25T15:13:39.428Z,99262.44
2022-09-25T15:16:31.953Z,99268.59
2022-09-25T15:19:01.098Z,99259.84
2022-09-25T15:21:34.099Z,99256.91
2022-09-25T15:24:07.067Z,99255.59
2022-09-25T15:26:41.039Z,99245.91
2022-09-25T15:29:36.702Z,99254.53
2022-09-25T15:32:05.725Z,99256.56
2022-09-25T15:34:33.526Z,99262.59
2022-09-25T15:37:20.994Z,99264.28
2022-09-25T15:39:48.124Z,99250.88
2022-09-25T15:42:15.182Z,99250.28
2022-09-25T15:44:42.023Z,99261.13
2022-09-25T15:47:48.341Z,99253.78
2022-09-25T15:50:22.682Z,99261.19
2022-09-25T15:52:55.409Z,99257.47
2022-09-25T15:55:22.595Z,99261.66
2022-09-25T15:57:52.564Z,99266.72
2022-09-25T16:00:41.923Z,99273.22
2022-09-25T16:03:49.227Z,99259.44
2022-09-25T16:06:17.261Z,99204.59
2022-09-25T16:08:44.098Z,99224.19
2022-09-25T16:11:25.171Z,99266.34
2022-09-25T16:13:53.849Z,99262.84
2022-09-25T16:16:29.366Z,99254.56
2022-09-25T16:18:58.934Z,99278.69
2022-09-25T16:21:33.758Z,99260.94
2022-09-25T16:24:07.424Z,99282.47
2022-09-25T16:26:41.452Z,99282.69
2022-09-25T16:29:11.482Z,99284.78
2022-09-25T16:31:40.101Z,99271.75
2022-09-25T16:34:25.662Z,99255.63
2022-09-25T16:36:54.743Z,99288.69
2022-09-25T16:39:24.896Z,99255.53
2022-09-25T16:41:51.859Z,99285.38
2022-09-25T16:44:38.269Z,99266.63
2022-09-25T16:47:12.948Z,99289.59
2022-09-25T16:49:40.178Z,99279.41
2022-09-25T16:52:08.485Z,99282.88
2022-09-25T16:54:38.087Z,99278.00
2022-09-25T16:57:04.917Z,99248.91
2022-09-25T16:59:31.744Z,99298.53
2022-09-25T17:02:14.301Z,99302.25
2022-09-25T17:04:41.110Z,99301.66
2022-09-25T17:07:08.557Z,99309.88
2022-09-25T17:09:37.346Z,99298.03
2022-09-25T17:12:10.717Z,99304.25
2022-09-25T17:14:37.580Z,99257.03
2022-09-25T17:17:04.267Z,99314.63
2022-09-25T17:19:31.072Z,99295.66
2022-09-25T17:21:57.993Z,99323.91
2022-09-25T17:24:27.521Z,99312.44
2022-09-25T17:26:54.679Z,99173.50
2022-09-25T17:29:21.953Z,99306.44
2022-09-25T17:31:48.672Z,99317.56
2022-09-25T17:34:24.553Z,99307.97
2022-09-25T17:36:51.950Z,99306.94
2022-09-25T17:39:18.657Z,99323.09
2022-09-25T17:41:45.368Z,99305.97
2022-09-25T17:44:16.751Z,99320.44
2022-09-25T17:46:43.972Z,99323.13
2022-09-25T17:49:11.494Z,99315.41
2022-09-25T17:51:38.387Z,99311.94
2022-09-25T18:07:43.864Z,99337.81
2022-09-25T18:10:11.661Z,99327.44
2022-09-25T18:12:38.724Z,99335.16
2022-09-25T18:15:06.057Z,99346.16
2022-09-25T18:17:32.764Z,99346.19
2022-09-25T18:20:17.807Z,99353.31
2022-09-25T18:22:44.582Z,99331.69
2022-09-25T18:25:11.349Z,99348.47
2022-09-25T18:27:41.623Z,99348.66
2022-09-25T18:30:14.990Z,99358.91
2022-09-25T18:32:42.081Z,99359.31
2022-09-25T18:35:09.358Z,99359.75
2022-09-25T18:37:59.849Z,99369.16
2022-09-25T18:40:27.128Z,99368.34
2022-09-25T18:42:54.075Z,99369.78
2022-09-25T18:45:21.894Z,99369.59
2022-09-25T18:47:48.751Z,99360.59
2022-09-25T18:50:20.501Z,99370.41
2022-09-25T18:52:47.844Z,99369.97
2022-09-25T18:55:14.605Z,99331.56
2022-09-25T18:57:42.658Z,99357.69
2022-09-25T19:00:09.977Z,99354.69
2022-09-25T19:02:39.180Z,99379.00
2022-09-25T19:05:07.074Z,99370.22
2022-09-25T19:07:36.598Z,99366.75
2022-09-25T19:10:09.188Z,99373.91
2022-09-25T19:12:35.977Z,99388.84
2022-09-25T19:15:04.694Z,99396.19
2022-09-25T19:17:31.976Z,99390.69
2022-09-25T19:19:59.091Z,99394.78
2022-09-25T19:22:25.947Z,99392.94
2022-09-25T19:24:52.795Z,99387.22
2022-09-25T19:27:20.008Z,99377.44
2022-09-25T19:29:47.164Z,99394.59
2022-09-25T19:32:16.844Z,99390.53
2022-09-25T19:34:44.443Z,99373.94
2022-09-25T19:37:11.416Z,99382.75
2022-09-25T19:39:57.176Z,99371.53
2022-09-25T19:42:24.364Z,99373.34
2022-09-25T19:45:09.634Z,99379.06
2022-09-25T19:47:36.385Z,99392.94
2022-09-25T19:50:06.962Z,99396.84
2022-09-25T19:52:33.749Z,99394.81
2022-09-25T19:55:00.651Z,99371.91
2022-09-25T19:57:27.837Z,99388.88
2022-09-25T19:59:54.953Z,99385.41
2022-09-25T20:02:21.718Z,99394.19
2022-09-25T20:04:48.658Z,99402.78
2022-09-25T20:07:16.672Z,99386.81
2022-09-25T20:09:44.537Z,99388.88
2022-09-25T20:12:11.673Z,99386.38
2022-09-25T20:14:38.553Z,99391.69
2022-09-25T20:17:09.920Z,99377.97
2022-09-25T20:19:37.715Z,99373.84
2022-09-25T20:22:04.376Z,99360.34
2022-09-25T20:24:31.222Z,99388.78
2022-09-25T20:26:57.970Z,99375.69
2022-09-25T20:29:24.816Z,99390.84
2022-09-25T20:31:51.541Z,99390.47
2022-09-25T20:34:19.813Z,99393.34
2022-09-25T20:36:47.081Z,99388.63
2022-09-25T20:39:19.723Z,99394.53
2022-09-25T20:41:48.064Z,99394.91
2022-09-25T20:44:14.853Z,99354.44
2022-09-25T20:46:42.035Z,99383.47
2022-09-25T20:49:10.695Z,99385.13
2022-09-25T20:51:37.726Z,99375.75
2022-09-25T20:54:06.529Z,99382.06
2022-09-25T20:56:35.129Z,99383.88
2022-09-25T20:59:02.392Z,99386.13
2022-09-25T21:01:38.599Z,99377.56
2022-09-25T21:04:08.033Z,99393.13
2022-09-25T21:06:37.197Z,99356.56
2022-09-25T21:09:06.990Z,99366.38
2022-09-25T21:11:34.591Z,99389.06
2022-09-25T21:14:02.872Z,99384.38
2022-09-25T21:16:31.583Z,99383.56
2022-09-25T21:19:04.308Z,99387.44
2022-09-25T21:21:32.090Z,99352.25
2022-09-25T21:23:59.023Z,99367.16
2022-09-25T21:26:27.868Z,99373.06
2022-09-25T21:28:56.808Z,99379.00
2022-09-25T21:31:29.322Z,99386.19
2022-09-25T21:33:57.404Z,99370.88
2022-09-25T21:36:25.619Z,99383.97
2022-09-25T21:38:53.091Z,99377.66
2022-09-25T21:41:22.667Z,99382.75
2022-09-25T21:43:53.110Z,99371.72
2022-09-25T21:46:22.276Z,99361.91
2022-09-25T21:49:04.425Z,99359.44
2022-09-25T21:51:36.654Z,99372.13
2022-09-25T21:54:05.610Z,99363.50
2022-09-25T21:56:32.765Z,99374.56
2022-09-25T21:59:05.622Z,99366.97
2022-09-25T22:01:35.616Z,99375.97
2022-09-25T22:04:04.439Z,99367.22
2022-09-25T22:06:34.603Z,99369.69
2022-09-25T22:09:05.311Z,99381.13
2022-09-25T22:11:32.361Z,99371.72
2022-09-25T22:14:00.306Z,99367.03
2022-09-25T22:16:30.334Z,99366.81
2022-09-25T22:19:14.125Z,99363.53
2022-09-25T22:21:42.544Z,99363.53
2022-09-25T22:24:09.621Z,99360.88
2022-09-25T22:26:39.657Z,99339.22
2022-09-25T22:29:07.204Z,99354.16
2022-09-25T22:31:35.106Z,99353.72
2022-09-25T22:34:07.399Z,99355.97
2022-09-25T22:36:38.754Z,99349.63
2022-09-25T22:39:06.211Z,99330.44
2022-09-25T22:41:33.272Z,99329.63
2022-09-25T22:44:01.205Z,99339.66
2022-09-25T22:46:28.372Z,99335.56
2022-09-25T22:48:55.997Z,99318.19
2022-09-25T22:51:25.136Z,99342.91
2022-09-25T22:53:54.889Z,99323.44
2022-09-25T22:56:27.688Z,99342.84
2022-09-25T22:58:57.013Z,99348.16
2022-09-25T23:01:37.854Z,99345.47
2022-09-25T23:04:19.768Z,99343.22
2022-09-25T23:06:46.887Z,99345.03
2022-09-25T23:09:17.208Z,99338.69
2022-09-25T23:11:45.633Z,99337.22
2022-09-25T23:14:21.785Z,99350.09
2022-09-25T23:16:50.654Z,99349.47
2022-09-25T23:19:18.128Z,99342.09
2022-09-25T23:21:45.171Z,99338.44
2022-09-25T23:24:14.425Z,99329.59
2022-09-25T23:26:41.327Z,99335.50
2022-09-25T23:29:08.126Z,99328.97
2022-09-25T23:31:34.950Z,99304.19
2022-09-25T23:34:02.307Z,99319.97
2022-09-25T23:36:55.030Z,99322.78
2022-09-25T23:39:21.701Z,99313.59
2022-09-25T23:41:48.802Z,99315.19
2022-09-25T23:44:15.435Z,99319.69
2022-09-25T23:46:43.289Z,99319.69
2022-09-25T23:49:10.735Z,99310.22
2022-09-25T23:51:37.940Z,99318.53
2022-09-25T23:54:04.816Z,99295.41
2022-09-25T23:56:34.128Z,99293.13
2022-09-25T23:59:01.669Z,99306.84
